sensor_id;sensor_type;location;lat;lon;timestamp;temperature;humidity
44069;DHT22;29738;51.234;5.484;2022-10-16T00:01:59;14.00;99.90
44069;DHT22;29738;51.234;5.484;2022-10-16T00:04:25;13.90;99.90
44069;DHT22;29738;51.234;5.484;2022-10-16T00:06:51;13.90;99.90
44069;DHT22;29738;51.234;5.484;2022-10-16T00:09:17;13.90;99.90
44069;DHT22;29738;51.234;5.484;2022-10-16T00:11:42;13.80;99.90
44069;DHT22;29738;51.234;5.484;2022-10-16T00:14:13;13.90;99.90
44069;DHT22;29738;51.234;5.484;2022-10-16T00:16:40;13.70;99.90
44069;DHT22;29738;51.234;5.484;2022-10-16T00:19:06;13.70;99.90
44069;DHT22;29738;51.234;5.484;2022-10-16T00:21:33;13.70;99.90
44069;DHT22;29738;51.234;5.484;2022-10-16T00:24:01;13.60;99.90
44069;DHT22;29738;51.234;5.484;2022-10-16T00:26:28;13.70;99.90
44069;DHT22;29738;51.234;5.484;2022-10-16T00:28:54;13.70;99.90
44069;DHT22;29738;51.234;5.484;2022-10-16T00:31:21;13.80;99.90
44069;DHT22;29738;51.234;5.484;2022-10-16T00:33:48;13.80;99.90
44069;DHT22;29738;51.234;5.484;2022-10-16T00:36:16;13.80;99.90
44069;DHT22;29738;51.234;5.484;2022-10-16T00:38:43;13.80;99.90
44069;DHT22;29738;51.234;5.484;2022-10-16T00:41:15;13.80;99.90
44069;DHT22;29738;51.234;5.484;2022-10-16T00:43:46;13.90;99.90
44069;DHT22;29738;51.234;5.484;2022-10-16T00:46:42;13.70;99.90
44069;DHT22;29738;51.234;5.484;2022-10-16T00:49:09;13.50;99.90
44069;DHT22;29738;51.234;5.484;2022-10-16T00:51:48;13.70;99.90
44069;DHT22;29738;51.234;5.484;2022-10-16T00:54:24;13.70;99.90
44069;DHT22;29738;51.234;5.484;2022-10-16T00:56:51;13.70;99.90
44069;DHT22;29738;51.234;5.484;2022-10-16T00:59:20;13.60;99.90
44069;DHT22;29738;51.234;5.484;2022-10-16T01:01:48;13.60;99.90
44069;DHT22;29738;51.234;5.484;2022-10-16T01:04:14;13.50;99.90
44069;DHT22;29738;51.234;5.484;2022-10-16T01:06:46;13.40;99.90
44069;DHT22;29738;51.234;5.484;2022-10-16T01:17:12;13.30;99.90
44069;DHT22;29738;51.234;5.484;2022-10-16T01:20:00;13.40;99.90
44069;DHT22;29738;51.234;5.484;2022-10-16T01:23:21;13.40;99.90
44069;DHT22;29738;51.234;5.484;2022-10-16T01:25:29;13.60;99.90
44069;DHT22;29738;51.234;5.484;2022-10-16T01:27:57;13.60;99.90
44069;DHT22;29738;51.234;5.484;2022-10-16T01:30:30;13.60;99.90
44069;DHT22;29738;51.234;5.484;2022-10-16T01:33:08;13.50;99.90
44069;DHT22;29738;51.234;5.484;2022-10-16T01:35:45;13.30;99.90
44069;DHT22;29738;51.234;5.484;2022-10-16T01:38:29;13.30;99.90
44069;DHT22;29738;51.234;5.484;2022-10-16T01:41:09;13.30;99.90
44069;DHT22;29738;51.234;5.484;2022-10-16T01:43:40;13.40;99.90
44069;DHT22;29738;51.234;5.484;2022-10-16T01:46:08;13.30;99.90
44069;DHT22;29738;51.234;5.484;2022-10-16T01:48:34;13.30;99.90
44069;DHT22;29738;51.234;5.484;2022-10-16T01:51:07;13.20;99.90
44069;DHT22;29738;51.234;5.484;2022-10-16T01:53:34;13.10;99.90
44069;DHT22;29738;51.234;5.484;2022-10-16T01:56:02;13.20;99.90
44069;DHT22;29738;51.234;5.484;2022-10-16T01:58:30;13.20;99.90
44069;DHT22;29738;51.234;5.484;2022-10-16T02:01:00;13.10;99.90
44069;DHT22;29738;51.234;5.484;2022-10-16T02:03:27;13.00;99.90
44069;DHT22;29738;51.234;5.484;2022-10-16T02:05:55;13.20;99.90
44069;DHT22;29738;51.234;5.484;2022-10-16T02:08:24;13.20;99.90
44069;DHT22;29738;51.234;5.484;2022-10-16T02:10:50;13.10;99.90
44069;DHT22;29738;51.234;5.484;2022-10-16T02:13:22;12.80;99.90
44069;DHT22;29738;51.234;5.484;2022-10-16T02:15:48;12.90;99.90
44069;DHT22;29738;51.234;5.484;2022-10-16T02:18:14;13.00;99.90
44069;DHT22;29738;51.234;5.484;2022-10-16T02:20:51;13.00;99.90
44069;DHT22;29738;51.234;5.484;2022-10-16T02:24:05;13.10;99.90
44069;DHT22;29738;51.234;5.484;2022-10-16T02:26:15;13.00;99.90
44069;DHT22;29738;51.234;5.484;2022-10-16T02:28:50;13.10;99.90
44069;DHT22;29738;51.234;5.484;2022-10-16T02:31:23;13.10;99.90
44069;DHT22;29738;51.234;5.484;2022-10-16T02:33:53;13.00;99.90
44069;DHT22;29738;51.234;5.484;2022-10-16T02:36:20;12.90;99.90
44069;DHT22;29738;51.234;5.484;2022-10-16T02:38:47;13.00;99.90
44069;DHT22;29738;51.234;5.484;2022-10-16T02:41:14;13.00;99.90
44069;DHT22;29738;51.234;5.484;2022-10-16T02:43:40;13.10;99.90
44069;DHT22;29738;51.234;5.484;2022-10-16T02:46:06;13.10;99.90
44069;DHT22;29738;51.234;5.484;2022-10-16T02:48:32;13.10;99.90
44069;DHT22;29738;51.234;5.484;2022-10-16T02:50:57;12.90;99.90
44069;DHT22;29738;51.234;5.484;2022-10-16T02:53:23;13.10;99.90
44069;DHT22;29738;51.234;5.484;2022-10-16T02:55:49;13.20;99.90
44069;DHT22;29738;51.234;5.484;2022-10-16T02:58:14;13.10;99.90
44069;DHT22;29738;51.234;5.484;2022-10-16T03:00:41;13.00;99.90
44069;DHT22;29738;51.234;5.484;2022-10-16T03:03:07;12.90;99.90
44069;DHT22;29738;51.234;5.484;2022-10-16T03:05:33;13.00;99.90
44069;DHT22;29738;51.234;5.484;2022-10-16T03:07:58;13.10;99.90
44069;DHT22;29738;51.234;5.484;2022-10-16T03:10:26;13.20;99.90
44069;DHT22;29738;51.234;5.484;2022-10-16T03:12:52;13.20;99.90
44069;DHT22;29738;51.234;5.484;2022-10-16T03:15:18;13.10;99.90
44069;DHT22;29738;51.234;5.484;2022-10-16T03:17:43;13.00;99.90
44069;DHT22;29738;51.234;5.484;2022-10-16T03:20:09;13.10;99.90
44069;DHT22;29738;51.234;5.484;2022-10-16T03:22:35;13.10;99.90
44069;DHT22;29738;51.234;5.484;2022-10-16T03:25:01;13.20;99.90
44069;DHT22;29738;51.234;5.484;2022-10-16T03:27:27;13.10;99.90
44069;DHT22;29738;51.234;5.484;2022-10-16T03:29:53;13.10;99.90
44069;DHT22;29738;51.234;5.484;2022-10-16T03:32:19;13.20;99.90
44069;DHT22;29738;51.234;5.484;2022-10-16T03:34:45;13.20;99.90
44069;DHT22;29738;51.234;5.484;2022-10-16T03:37:11;13.20;99.90
44069;DHT22;29738;51.234;5.484;2022-10-16T03:39:37;13.20;99.90
44069;DHT22;29738;51.234;5.484;2022-10-16T03:42:03;13.20;99.90
44069;DHT22;29738;51.234;5.484;2022-10-16T03:44:28;13.00;99.90
44069;DHT22;29738;51.234;5.484;2022-10-16T03:46:54;13.00;99.90
44069;DHT22;29738;51.234;5.484;2022-10-16T03:49:20;13.10;99.90
44069;DHT22;29738;51.234;5.484;2022-10-16T03:51:46;13.10;99.90
44069;DHT22;29738;51.234;5.484;2022-10-16T03:54:12;13.10;99.90
44069;DHT22;29738;51.234;5.484;2022-10-16T03:56:38;13.10;99.90
44069;DHT22;29738;51.234;5.484;2022-10-16T03:59:04;13.20;99.90
44069;DHT22;29738;51.234;5.484;2022-10-16T04:01:30;13.30;99.90
44069;DHT22;29738;51.234;5.484;2022-10-16T04:03:55;13.30;99.90
44069;DHT22;29738;51.234;5.484;2022-10-16T04:06:21;13.20;99.90
44069;DHT22;29738;51.234;5.484;2022-10-16T04:08:47;13.20;99.90
44069;DHT22;29738;51.234;5.484;2022-10-16T04:11:13;13.10;99.90
44069;DHT22;29738;51.234;5.484;2022-10-16T04:13:38;13.00;99.90
44069;DHT22;29738;51.234;5.484;2022-10-16T04:16:04;13.10;99.90
44069;DHT22;29738;51.234;5.484;2022-10-16T04:18:30;13.10;99.90
44069;DHT22;29738;51.234;5.484;2022-10-16T04:20:56;13.10;99.90
44069;DHT22;29738;51.234;5.484;2022-10-16T04:23:22;13.20;99.90
44069;DHT22;29738;51.234;5.484;2022-10-16T04:25:48;13.10;99.90
44069;DHT22;29738;51.234;5.484;2022-10-16T04:28:14;13.10;99.90
44069;DHT22;29738;51.234;5.484;2022-10-16T04:30:40;13.10;99.90
44069;DHT22;29738;51.234;5.484;2022-10-16T04:33:07;13.10;99.90
44069;DHT22;29738;51.234;5.484;2022-10-16T04:35:33;13.20;99.90
44069;DHT22;29738;51.234;5.484;2022-10-16T04:37:59;13.20;99.90
44069;DHT22;29738;51.234;5.484;2022-10-16T04:40:25;13.20;99.90
44069;DHT22;29738;51.234;5.484;2022-10-16T04:42:51;13.10;99.90
44069;DHT22;29738;51.234;5.484;2022-10-16T04:45:17;13.20;99.90
44069;DHT22;29738;51.234;5.484;2022-10-16T04:47:42;13.20;99.90
44069;DHT22;29738;51.234;5.484;2022-10-16T04:50:08;13.10;99.90
44069;DHT22;29738;51.234;5.484;2022-10-16T04:52:34;13.20;99.90
44069;DHT22;29738;51.234;5.484;2022-10-16T04:55:00;13.10;99.90
44069;DHT22;29738;51.234;5.484;2022-10-16T04:57:29;13.10;99.90
44069;DHT22;29738;51.234;5.484;2022-10-16T04:59:55;13.20;99.90
44069;DHT22;29738;51.234;5.484;2022-10-16T05:02:20;13.20;99.90
44069;DHT22;29738;51.234;5.484;2022-10-16T05:04:46;13.10;99.90
44069;DHT22;29738;51.234;5.484;2022-10-16T05:07:12;13.20;99.90
44069;DHT22;29738;51.234;5.484;2022-10-16T05:09:38;13.10;99.90
44069;DHT22;29738;51.234;5.484;2022-10-16T05:12:04;13.00;99.90
44069;DHT22;29738;51.234;5.484;2022-10-16T05:14:29;13.10;99.90
44069;DHT22;29738;51.234;5.484;2022-10-16T05:16:56;13.10;99.90
44069;DHT22;29738;51.234;5.484;2022-10-16T05:19:22;13.00;99.90
44069;DHT22;29738;51.234;5.484;2022-10-16T05:21:48;12.90;99.90
44069;DHT22;29738;51.234;5.484;2022-10-16T05:24:13;13.10;99.90
44069;DHT22;29738;51.234;5.484;2022-10-16T05:26:39;13.30;99.90
44069;DHT22;29738;51.234;5.484;2022-10-16T05:29:05;13.30;99.90
44069;DHT22;29738;51.234;5.484;2022-10-16T05:31:31;13.20;99.90
44069;DHT22;29738;51.234;5.484;2022-10-16T05:34:00;13.10;99.90
44069;DHT22;29738;51.234;5.484;2022-10-16T05:36:26;13.00;99.90
44069;DHT22;29738;51.234;5.484;2022-10-16T05:38:51;13.00;99.90
44069;DHT22;29738;51.234;5.484;2022-10-16T05:41:18;12.90;99.90
44069;DHT22;29738;51.234;5.484;2022-10-16T05:43:47;13.00;99.90
44069;DHT22;29738;51.234;5.484;2022-10-16T05:46:13;13.00;99.90
44069;DHT22;29738;51.234;5.484;2022-10-16T05:48:39;12.90;99.90
44069;DHT22;29738;51.234;5.484;2022-10-16T05:51:07;12.90;99.90
44069;DHT22;29738;51.234;5.484;2022-10-16T05:53:35;12.80;99.90
44069;DHT22;29738;51.234;5.484;2022-10-16T05:56:02;12.90;99.90
44069;DHT22;29738;51.234;5.484;2022-10-16T05:58:30;12.90;99.90
44069;DHT22;29738;51.234;5.484;2022-10-16T06:00:58;12.90;99.90
44069;DHT22;29738;51.234;5.484;2022-10-16T06:03:25;12.90;99.90
44069;DHT22;29738;51.234;5.484;2022-10-16T06:05:51;12.80;99.90
44069;DHT22;29738;51.234;5.484;2022-10-16T06:08:18;12.80;99.90
44069;DHT22;29738;51.234;5.484;2022-10-16T06:10:45;12.90;99.90
44069;DHT22;29738;51.234;5.484;2022-10-16T06:13:12;12.90;99.90
44069;DHT22;29738;51.234;5.484;2022-10-16T06:15:39;13.10;99.90
44069;DHT22;29738;51.234;5.484;2022-10-16T06:18:07;12.90;99.90
44069;DHT22;29738;51.234;5.484;2022-10-16T06:20:34;13.00;99.90
44069;DHT22;29738;51.234;5.484;2022-10-16T06:23:00;13.00;99.90
44069;DHT22;29738;51.234;5.484;2022-10-16T06:25:26;12.90;99.90
44069;DHT22;29738;51.234;5.484;2022-10-16T06:27:51;12.70;99.90
44069;DHT22;29738;51.234;5.484;2022-10-16T06:30:17;12.60;99.90
44069;DHT22;29738;51.234;5.484;2022-10-16T06:32:43;12.70;99.90
44069;DHT22;29738;51.234;5.484;2022-10-16T06:35:09;12.70;99.90
44069;DHT22;29738;51.234;5.484;2022-10-16T06:37:34;12.90;99.90
44069;DHT22;29738;51.234;5.484;2022-10-16T06:40:00;13.10;99.90
44069;DHT22;29738;51.234;5.484;2022-10-16T06:42:26;13.10;99.90
44069;DHT22;29738;51.234;5.484;2022-10-16T06:44:52;13.10;99.90
44069;DHT22;29738;51.234;5.484;2022-10-16T06:47:18;13.20;99.90
44069;DHT22;29738;51.234;5.484;2022-10-16T06:49:43;13.20;99.90
44069;DHT22;29738;51.234;5.484;2022-10-16T06:52:10;13.10;99.90
44069;DHT22;29738;51.234;5.484;2022-10-16T06:54:36;12.90;99.90
44069;DHT22;29738;51.234;5.484;2022-10-16T06:57:02;13.00;99.90
44069;DHT22;29738;51.234;5.484;2022-10-16T06:59:27;12.90;99.90
44069;DHT22;29738;51.234;5.484;2022-10-16T07:01:53;13.10;99.90
44069;DHT22;29738;51.234;5.484;2022-10-16T07:04:19;13.10;99.90
44069;DHT22;29738;51.234;5.484;2022-10-16T07:06:45;13.30;99.90
44069;DHT22;29738;51.234;5.484;2022-10-16T07:09:11;13.30;99.90
44069;DHT22;29738;51.234;5.484;2022-10-16T07:11:38;13.30;99.90
44069;DHT22;29738;51.234;5.484;2022-10-16T07:14:04;13.50;99.90
44069;DHT22;29738;51.234;5.484;2022-10-16T07:16:32;13.50;99.90
44069;DHT22;29738;51.234;5.484;2022-10-16T07:19:00;13.40;99.90
44069;DHT22;29738;51.234;5.484;2022-10-16T07:21:29;13.60;99.90
44069;DHT22;29738;51.234;5.484;2022-10-16T07:23:57;13.60;99.90
44069;DHT22;29738;51.234;5.484;2022-10-16T07:26:24;13.60;99.90
44069;DHT22;29738;51.234;5.484;2022-10-16T07:28:50;13.70;99.90
44069;DHT22;29738;51.234;5.484;2022-10-16T07:31:18;13.70;99.90
44069;DHT22;29738;51.234;5.484;2022-10-16T07:33:45;13.90;99.90
44069;DHT22;29738;51.234;5.484;2022-10-16T07:36:13;13.90;99.90
44069;DHT22;29738;51.234;5.484;2022-10-16T07:38:39;13.90;99.90
44069;DHT22;29738;51.234;5.484;2022-10-16T07:41:06;14.10;99.90
44069;DHT22;29738;51.234;5.484;2022-10-16T07:43:33;14.40;99.90
44069;DHT22;29738;51.234;5.484;2022-10-16T07:45:59;14.40;99.90
44069;DHT22;29738;51.234;5.484;2022-10-16T07:48:31;14.30;99.90
44069;DHT22;29738;51.234;5.484;2022-10-16T07:51:01;14.40;99.90
44069;DHT22;29738;51.234;5.484;2022-10-16T07:53:28;14.50;99.90
44069;DHT22;29738;51.234;5.484;2022-10-16T07:56:01;14.40;99.90
44069;DHT22;29738;51.234;5.484;2022-10-16T07:58:28;14.50;99.90
44069;DHT22;29738;51.234;5.484;2022-10-16T08:00:55;14.60;99.90
44069;DHT22;29738;51.234;5.484;2022-10-16T08:03:21;14.70;99.90
44069;DHT22;29738;51.234;5.484;2022-10-16T08:05:46;14.80;99.90
44069;DHT22;29738;51.234;5.484;2022-10-16T08:08:14;14.80;99.90
44069;DHT22;29738;51.234;5.484;2022-10-16T08:10:40;14.90;99.90
44069;DHT22;29738;51.234;5.484;2022-10-16T08:13:06;15.00;99.90
44069;DHT22;29738;51.234;5.484;2022-10-16T08:15:32;15.10;99.90
44069;DHT22;29738;51.234;5.484;2022-10-16T08:18:00;15.20;99.90
44069;DHT22;29738;51.234;5.484;2022-10-16T08:20:27;15.20;99.90
44069;DHT22;29738;51.234;5.484;2022-10-16T08:22:53;15.30;99.90
44069;DHT22;29738;51.234;5.484;2022-10-16T08:25:20;15.40;99.90
44069;DHT22;29738;51.234;5.484;2022-10-16T08:27:46;15.50;99.90
44069;DHT22;29738;51.234;5.484;2022-10-16T08:30:13;15.60;99.90
44069;DHT22;29738;51.234;5.484;2022-10-16T08:32:39;15.50;99.90
44069;DHT22;29738;51.234;5.484;2022-10-16T08:35:06;15.40;99.90
44069;DHT22;29738;51.234;5.484;2022-10-16T08:37:33;15.60;99.90
44069;DHT22;29738;51.234;5.484;2022-10-16T08:39:58;15.50;99.90
44069;DHT22;29738;51.234;5.484;2022-10-16T08:42:33;15.50;99.90
44069;DHT22;29738;51.234;5.484;2022-10-16T08:48:04;15.50;99.90
44069;DHT22;29738;51.234;5.484;2022-10-16T08:50:36;15.60;99.90
44069;DHT22;29738;51.234;5.484;2022-10-16T08:53:04;15.70;99.90
44069;DHT22;29738;51.234;5.484;2022-10-16T08:55:49;15.80;99.90
44069;DHT22;29738;51.234;5.484;2022-10-16T08:58:22;15.70;99.90
44069;DHT22;29738;51.234;5.484;2022-10-16T09:00:54;15.70;99.90
44069;DHT22;29738;51.234;5.484;2022-10-16T09:06:25;15.80;99.90
44069;DHT22;29738;51.234;5.484;2022-10-16T09:12:00;16.10;99.90
44069;DHT22;29738;51.234;5.484;2022-10-16T09:15:43;16.00;99.90
44069;DHT22;29738;51.234;5.484;2022-10-16T09:18:15;16.20;99.90
44069;DHT22;29738;51.234;5.484;2022-10-16T09:23:40;16.50;99.90
44069;DHT22;29738;51.234;5.484;2022-10-16T09:26:10;16.50;99.90
44069;DHT22;29738;51.234;5.484;2022-10-16T09:28:36;16.70;99.90
44069;DHT22;29738;51.234;5.484;2022-10-16T09:31:02;16.60;99.90
44069;DHT22;29738;51.234;5.484;2022-10-16T09:33:33;16.70;99.90
44069;DHT22;29738;51.234;5.484;2022-10-16T09:36:00;16.70;99.90
44069;DHT22;29738;51.234;5.484;2022-10-16T09:38:30;16.80;99.90
44069;DHT22;29738;51.234;5.484;2022-10-16T09:41:01;16.80;99.90
44069;DHT22;29738;51.234;5.484;2022-10-16T09:43:32;16.90;99.90
44069;DHT22;29738;51.234;5.484;2022-10-16T09:46:25;16.90;99.90
44069;DHT22;29738;51.234;5.484;2022-10-16T09:48:56;16.80;99.90
44069;DHT22;29738;51.234;5.484;2022-10-16T09:51:26;16.90;99.90
44069;DHT22;29738;51.234;5.484;2022-10-16T09:54:00;17.00;99.90
44069;DHT22;29738;51.234;5.484;2022-10-16T09:58:56;16.70;99.90
44069;DHT22;29738;51.234;5.484;2022-10-16T10:01:31;16.60;99.90
44069;DHT22;29738;51.234;5.484;2022-10-16T10:04:01;16.80;99.90
44069;DHT22;29738;51.234;5.484;2022-10-16T10:06:36;16.80;99.90
44069;DHT22;29738;51.234;5.484;2022-10-16T10:12:03;16.40;99.90
44069;DHT22;29738;51.234;5.484;2022-10-16T10:14:47;16.30;99.90
44069;DHT22;29738;51.234;5.484;2022-10-16T10:19:58;16.40;99.90
44069;DHT22;29738;51.234;5.484;2022-10-16T10:22:45;16.70;99.90
44069;DHT22;29738;51.234;5.484;2022-10-16T10:30:29;17.00;99.90
44069;DHT22;29738;51.234;5.484;2022-10-16T10:38:50;17.40;99.90
44069;DHT22;29738;51.234;5.484;2022-10-16T10:41:32;17.60;99.90
44069;DHT22;29738;51.234;5.484;2022-10-16T10:46:58;17.60;99.90
44069;DHT22;29738;51.234;5.484;2022-10-16T10:55:00;17.80;99.90
44069;DHT22;29738;51.234;5.484;2022-10-16T11:02:54;18.30;99.90
44069;DHT22;29738;51.234;5.484;2022-10-16T11:05:44;18.30;99.90
44069;DHT22;29738;51.234;5.484;2022-10-16T11:08:16;18.20;99.90
44069;DHT22;29738;51.234;5.484;2022-10-16T11:13:39;18.40;99.90
44069;DHT22;29738;51.234;5.484;2022-10-16T11:16:37;18.30;99.90
44069;DHT22;29738;51.234;5.484;2022-10-16T11:21:44;18.00;99.90
44069;DHT22;29738;51.234;5.484;2022-10-16T11:27:37;18.20;99.90
44069;DHT22;29738;51.234;5.484;2022-10-16T11:30:33;18.50;99.90
44069;DHT22;29738;51.234;5.484;2022-10-16T11:46:29;18.90;99.90
44069;DHT22;29738;51.234;5.484;2022-10-16T11:49:12;19.00;99.90
44069;DHT22;29738;51.234;5.484;2022-10-16T11:57:09;19.40;99.90
44069;DHT22;29738;51.234;5.484;2022-10-16T11:59:51;19.50;99.90
44069;DHT22;29738;51.234;5.484;2022-10-16T12:05:42;19.50;99.90
44069;DHT22;29738;51.234;5.484;2022-10-16T12:07:48;19.60;99.90
44069;DHT22;29738;51.234;5.484;2022-10-16T12:10:24;19.50;99.90
44069;DHT22;29738;51.234;5.484;2022-10-16T12:12:50;19.50;99.90
44069;DHT22;29738;51.234;5.484;2022-10-16T12:15:33;19.50;99.90
44069;DHT22;29738;51.234;5.484;2022-10-16T12:17:59;19.50;99.90
44069;DHT22;29738;51.234;5.484;2022-10-16T12:20:32;19.30;99.90
44069;DHT22;29738;51.234;5.484;2022-10-16T12:23:04;19.00;99.90
44069;DHT22;29738;51.234;5.484;2022-10-16T12:25:39;18.70;99.90
44069;DHT22;29738;51.234;5.484;2022-10-16T12:30:41;19.20;99.90
44069;DHT22;29738;51.234;5.484;2022-10-16T12:33:41;19.30;99.90
44069;DHT22;29738;51.234;5.484;2022-10-16T12:36:27;19.40;99.90
44069;DHT22;29738;51.234;5.484;2022-10-16T12:38:54;19.50;99.90
44069;DHT22;29738;51.234;5.484;2022-10-16T12:43:54;19.40;99.90
44069;DHT22;29738;51.234;5.484;2022-10-16T12:46:26;19.50;99.90
44069;DHT22;29738;51.234;5.484;2022-10-16T12:49:28;19.40;99.90
44069;DHT22;29738;51.234;5.484;2022-10-16T12:51:55;19.30;99.90
44069;DHT22;29738;51.234;5.484;2022-10-16T12:54:28;19.30;99.90
44069;DHT22;29738;51.234;5.484;2022-10-16T12:57:19;19.20;99.90
44069;DHT22;29738;51.234;5.484;2022-10-16T13:08:25;20.10;99.90
44069;DHT22;29738;51.234;5.484;2022-10-16T13:19:45;20.20;99.90
44069;DHT22;29738;51.234;5.484;2022-10-16T13:22:26;19.90;99.90
44069;DHT22;29738;51.234;5.484;2022-10-16T13:28:05;19.60;99.90
44069;DHT22;29738;51.234;5.484;2022-10-16T13:30:42;19.70;99.90
44069;DHT22;29738;51.234;5.484;2022-10-16T13:33:20;19.70;99.90
44069;DHT22;29738;51.234;5.484;2022-10-16T13:35:51;19.70;99.90
44069;DHT22;29738;51.234;5.484;2022-10-16T13:38:20;19.50;99.90
44069;DHT22;29738;51.234;5.484;2022-10-16T13:43:43;19.60;99.90
44069;DHT22;29738;51.234;5.484;2022-10-16T13:46:15;19.40;99.90
44069;DHT22;29738;51.234;5.484;2022-10-16T13:48:42;19.30;99.90
44069;DHT22;29738;51.234;5.484;2022-10-16T13:51:13;19.40;99.90
44069;DHT22;29738;51.234;5.484;2022-10-16T13:53:41;19.50;99.90
44069;DHT22;29738;51.234;5.484;2022-10-16T13:56:13;19.60;99.90
44069;DHT22;29738;51.234;5.484;2022-10-16T13:58:40;19.60;99.90
44069;DHT22;29738;51.234;5.484;2022-10-16T14:01:20;19.50;99.90
44069;DHT22;29738;51.234;5.484;2022-10-16T14:03:47;19.50;99.90
44069;DHT22;29738;51.234;5.484;2022-10-16T14:06:19;19.50;99.90
44069;DHT22;29738;51.234;5.484;2022-10-16T14:09:08;19.30;99.90
44069;DHT22;29738;51.234;5.484;2022-10-16T14:11:42;19.50;99.90
44069;DHT22;29738;51.234;5.484;2022-10-16T14:14:11;19.60;99.90
44069;DHT22;29738;51.234;5.484;2022-10-16T14:16:41;19.70;99.90
44069;DHT22;29738;51.234;5.484;2022-10-16T14:19:18;19.80;99.90
44069;DHT22;29738;51.234;5.484;2022-10-16T14:21:44;19.70;99.90
44069;DHT22;29738;51.234;5.484;2022-10-16T14:24:11;19.70;99.90
44069;DHT22;29738;51.234;5.484;2022-10-16T14:26:45;19.80;99.90
44069;DHT22;29738;51.234;5.484;2022-10-16T14:29:18;19.90;99.90
44069;DHT22;29738;51.234;5.484;2022-10-16T14:32:02;19.60;99.90
44069;DHT22;29738;51.234;5.484;2022-10-16T14:34:37;19.60;99.90
44069;DHT22;29738;51.234;5.484;2022-10-16T14:37:26;19.60;99.90
44069;DHT22;29738;51.234;5.484;2022-10-16T14:39:53;19.70;99.90
44069;DHT22;29738;51.234;5.484;2022-10-16T14:42:21;19.80;99.90
44069;DHT22;29738;51.234;5.484;2022-10-16T14:44:50;19.80;99.90
44069;DHT22;29738;51.234;5.484;2022-10-16T14:47:20;19.80;99.90
44069;DHT22;29738;51.234;5.484;2022-10-16T14:49:50;19.60;99.90
44069;DHT22;29738;51.234;5.484;2022-10-16T14:52:16;19.40;99.90
44069;DHT22;29738;51.234;5.484;2022-10-16T14:54:42;19.40;99.90
44069;DHT22;29738;51.234;5.484;2022-10-16T14:57:19;19.20;99.90
44069;DHT22;29738;51.234;5.484;2022-10-16T14:59:46;19.40;99.90
44069;DHT22;29738;51.234;5.484;2022-10-16T15:04:53;19.20;99.90
44069;DHT22;29738;51.234;5.484;2022-10-16T15:07:19;19.10;99.90
44069;DHT22;29738;51.234;5.484;2022-10-16T15:09:45;19.20;99.90
44069;DHT22;29738;51.234;5.484;2022-10-16T15:12:11;19.20;99.90
44069;DHT22;29738;51.234;5.484;2022-10-16T15:14:37;19.30;99.90
44069;DHT22;29738;51.234;5.484;2022-10-16T15:17:02;19.30;99.90
44069;DHT22;29738;51.234;5.484;2022-10-16T15:19:28;19.40;99.90
44069;DHT22;29738;51.234;5.484;2022-10-16T15:21:54;19.30;99.90
44069;DHT22;29738;51.234;5.484;2022-10-16T15:24:20;19.50;99.90
44069;DHT22;29738;51.234;5.484;2022-10-16T15:26:46;19.40;99.90
44069;DHT22;29738;51.234;5.484;2022-10-16T15:29:12;19.50;99.90
44069;DHT22;29738;51.234;5.484;2022-10-16T15:31:38;19.50;99.90
44069;DHT22;29738;51.234;5.484;2022-10-16T15:34:04;19.50;99.90
44069;DHT22;29738;51.234;5.484;2022-10-16T15:36:36;19.40;99.90
44069;DHT22;29738;51.234;5.484;2022-10-16T15:39:14;19.20;99.90
44069;DHT22;29738;51.234;5.484;2022-10-16T15:41:40;19.10;99.90
44069;DHT22;29738;51.234;5.484;2022-10-16T15:44:06;19.00;99.90
44069;DHT22;29738;51.234;5.484;2022-10-16T15:46:32;18.80;99.90
44069;DHT22;29738;51.234;5.484;2022-10-16T15:48:59;18.60;99.90
44069;DHT22;29738;51.234;5.484;2022-10-16T15:51:26;18.60;99.90
44069;DHT22;29738;51.234;5.484;2022-10-16T15:53:58;18.70;99.90
44069;DHT22;29738;51.234;5.484;2022-10-16T15:56:24;18.80;99.90
44069;DHT22;29738;51.234;5.484;2022-10-16T15:58:52;18.90;99.90
44069;DHT22;29738;51.234;5.484;2022-10-16T16:01:19;18.90;99.90
44069;DHT22;29738;51.234;5.484;2022-10-16T16:03:44;18.50;99.90
44069;DHT22;29738;51.234;5.484;2022-10-16T16:06:12;18.40;99.90
44069;DHT22;29738;51.234;5.484;2022-10-16T16:08:38;18.20;99.90
44069;DHT22;29738;51.234;5.484;2022-10-16T16:11:08;18.00;99.90
44069;DHT22;29738;51.234;5.484;2022-10-16T16:13:34;17.70;99.90
44069;DHT22;29738;51.234;5.484;2022-10-16T16:16:05;17.90;99.90
44069;DHT22;29738;51.234;5.484;2022-10-16T16:18:31;17.80;99.90
44069;DHT22;29738;51.234;5.484;2022-10-16T16:20:57;17.70;99.90
44069;DHT22;29738;51.234;5.484;2022-10-16T16:23:23;17.50;99.90
44069;DHT22;29738;51.234;5.484;2022-10-16T16:26:10;17.30;99.90
44069;DHT22;29738;51.234;5.484;2022-10-16T16:28:37;17.10;99.90
44069;DHT22;29738;51.234;5.484;2022-10-16T16:31:03;16.90;99.90
44069;DHT22;29738;51.234;5.484;2022-10-16T16:33:29;17.00;99.90
44069;DHT22;29738;51.234;5.484;2022-10-16T16:36:01;17.00;99.90
44069;DHT22;29738;51.234;5.484;2022-10-16T16:38:27;17.10;99.90
44069;DHT22;29738;51.234;5.484;2022-10-16T16:40:53;16.90;99.90
44069;DHT22;29738;51.234;5.484;2022-10-16T16:43:22;16.80;99.90
44069;DHT22;29738;51.234;5.484;2022-10-16T16:45:48;16.60;99.90
44069;DHT22;29738;51.234;5.484;2022-10-16T16:48:13;16.60;99.90
44069;DHT22;29738;51.234;5.484;2022-10-16T16:50:39;16.80;99.90
44069;DHT22;29738;51.234;5.484;2022-10-16T16:53:05;17.00;99.90
44069;DHT22;29738;51.234;5.484;2022-10-16T16:55:32;16.90;99.90
44069;DHT22;29738;51.234;5.484;2022-10-16T16:57:58;17.00;99.90
44069;DHT22;29738;51.234;5.484;2022-10-16T17:00:24;17.10;99.90
44069;DHT22;29738;51.234;5.484;2022-10-16T17:02:50;17.00;99.90
44069;DHT22;29738;51.234;5.484;2022-10-16T17:05:17;16.90;99.90
44069;DHT22;29738;51.234;5.484;2022-10-16T17:07:43;16.90;99.90
44069;DHT22;29738;51.234;5.484;2022-10-16T17:10:09;16.50;99.90
44069;DHT22;29738;51.234;5.484;2022-10-16T17:12:35;16.30;99.90
44069;DHT22;29738;51.234;5.484;2022-10-16T17:15:02;16.20;99.90
44069;DHT22;29738;51.234;5.484;2022-10-16T17:17:27;16.10;99.90
44069;DHT22;29738;51.234;5.484;2022-10-16T17:19:53;16.10;99.90
44069;DHT22;29738;51.234;5.484;2022-10-16T17:22:19;16.10;99.90
44069;DHT22;29738;51.234;5.484;2022-10-16T17:24:48;16.20;99.90
44069;DHT22;29738;51.234;5.484;2022-10-16T17:27:15;16.00;99.90
44069;DHT22;29738;51.234;5.484;2022-10-16T17:29:41;16.10;99.90
44069;DHT22;29738;51.234;5.484;2022-10-16T17:32:07;16.00;99.90
44069;DHT22;29738;51.234;5.484;2022-10-16T17:34:33;16.00;99.90
44069;DHT22;29738;51.234;5.484;2022-10-16T17:37:00;16.00;99.90
44069;DHT22;29738;51.234;5.484;2022-10-16T17:39:26;16.10;99.90